Ashland, New York
Current Conditions -  °F | °C
As of 7:51 AM on Sunday 21 Dec 2014 (Local Time) from KALB Reporting Station
Light Snow Light Snow  
Wind Chill: 27°   Ceiling: 2000
Heat Index: 27°   Visibility: 7mi
Dew Point: 20°   Wind: 0mph
Humidity: 75%   Direction: NA
Pressure: 30.34"   Gusts: NA
Location:  42.3°N, 74.33°W
Report Text: KALB 211251Z 00000KT 7SM -SN BKN020 OVC027 M03/M07 A3034 RMK AO2 SLP277 PCPN VRY LGT P0000 T10281067
Loading
Personal Weather Stations






























Interactive Weather Map New forecast layout! Learn more

10-Day Weather Forecast

Advertisements
Track Severe Weather on mobile